Time;durP1;ratioP1;P1;durP2;ratioP2;P2;SDS_P1;SDS_P2;PMS_P1;PMS_P2;Temp;Humidity;BMP_temperature;BMP_pressure;BME280_temperature;BME280_humidity;BME280_pressure;Samples;Min_cycle;Max_cycle;Signal;HPM_P1;HPM_P2
2022/06/15 00:01:36;;;;;;;5.20;3.97;;;;;;;15.29;77.45;99215.00;5035299;28;20456;-80
2022/06/15 00:04:03;;;;;;;6.65;3.83;;;;;;;15.20;77.21;99188.94;5035537;28;20073;-80
2022/06/15 00:06:36;;;;;;;5.70;3.88;;;;;;;15.32;77.29;99220.19;5035047;28;20056;-79
2022/06/15 00:09:04;;;;;;;9.27;5.00;;;;;;;15.27;77.66;99212.44;5035826;28;20053;-81
2022/06/15 00:11:35;;;;;;;9.15;4.60;;;;;;;15.25;77.79;99222.13;5034875;28;20053;-80
2022/06/15 00:14:06;;;;;;;13.85;4.85;;;;;;;15.11;78.02;99196.16;5033844;28;20049;-80
2022/06/15 00:16:33;;;;;;;10.80;4.60;;;;;;;15.15;77.96;99218.00;5034749;28;20050;-80
2022/06/15 00:19:02;;;;;;;12.85;5.43;;;;;;;15.18;78.21;99220.53;5034594;28;20057;-80
2022/06/15 00:21:30;;;;;;;11.50;5.00;;;;;;;15.15;77.98;99226.75;5034779;28;20061;-80
2022/06/15 00:23:57;;;;;;;11.70;5.30;;;;;;;15.13;78.43;99225.91;5034111;28;20053;-80
2022/06/15 00:26:25;;;;;;;15.20;5.00;;;;;;;15.07;78.49;99223.44;5034661;28;20138;-80
2022/06/15 00:28:52;;;;;;;11.38;5.10;;;;;;;15.04;78.51;99238.47;5035247;28;20148;-79
2022/06/15 00:31:20;;;;;;;11.52;5.68;;;;;;;14.98;78.82;99214.94;5046525;28;20057;-79
2022/06/15 00:33:47;;;;;;;6.88;4.47;;;;;;;14.98;78.87;99225.44;5056927;28;20069;-78
2022/06/15 00:36:21;;;;;;;5.93;4.38;;;;;;;14.92;79.14;99214.16;5057503;28;20026;-78
2022/06/15 00:38:51;;;;;;;10.65;4.60;;;;;;;14.82;78.87;99203.91;5051136;28;20065;-81
2022/06/15 00:41:40;;;;;;;7.75;4.93;;;;;;;14.93;78.76;99229.06;5036601;28;20065;-81
2022/06/15 00:44:26;;;;;;;5.73;5.13;;;;;;;14.87;78.96;99236.22;5034156;28;20056;-81
2022/06/15 00:47:00;;;;;;;7.05;4.82;;;;;;;14.84;78.78;99236.28;5033622;28;20041;-80
2022/06/15 00:50:00;;;;;;;7.13;5.00;;;;;;;14.83;78.72;99230.16;5034006;28;20072;-81
2022/06/15 00:52:33;;;;;;;6.95;5.20;;;;;;;14.77;78.73;99230.31;5032118;28;20115;-80
2022/06/15 00:55:07;;;;;;;6.20;4.85;;;;;;;14.73;78.57;99205.88;5033844;28;20560;-82
2022/06/15 00:57:35;;;;;;;5.18;4.30;;;;;;;14.61;78.53;99198.28;5033653;28;20056;-81
2022/06/15 01:00:05;;;;;;;7.25;5.18;;;;;;;14.75;78.25;99226.84;5033431;28;20061;-80
2022/06/15 01:02:39;;;;;;;6.30;5.10;;;;;;;14.77;78.12;99232.09;5032873;28;20049;-80
2022/06/15 01:05:16;;;;;;;6.72;4.75;;;;;;;14.70;77.85;99218.22;5033513;28;20420;-80
2022/06/15 01:08:25;;;;;;;6.35;4.97;;;;;;;14.78;77.83;99226.81;5032406;28;20096;-79
2022/06/15 01:11:20;;;;;;;5.30;4.80;;;;;;;14.67;77.72;99218.28;5030884;28;20068;-79
2022/06/15 01:14:19;;;;;;;6.53;4.45;;;;;;;14.70;77.19;99199.81;5032336;28;20061;-80
2022/06/15 01:17:12;;;;;;;7.53;4.88;;;;;;;14.74;77.21;99223.38;5032501;28;20053;-80
2022/06/15 01:19:57;;;;;;;4.70;4.30;;;;;;;14.80;77.26;99221.47;5032320;28;20187;-79
2022/06/15 01:22:53;;;;;;;5.03;4.20;;;;;;;14.67;76.61;99200.78;5033786;28;20144;-78
2022/06/15 01:25:35;;;;;;;7.80;4.80;;;;;;;14.85;76.20;99224.88;5032999;28;20425;-80
2022/06/15 01:28:32;;;;;;;6.82;4.47;;;;;;;14.89;75.73;99219.50;5031951;28;20144;-79
2022/06/15 01:31:30;;;;;;;7.65;4.43;;;;;;;14.93;75.88;99222.94;5031262;28;20053;-80
2022/06/15 01:34:23;;;;;;;6.18;4.35;;;;;;;15.01;75.67;99231.47;5032883;28;20506;-79
2022/06/15 01:37:06;;;;;;;9.52;5.15;;;;;;;15.09;75.29;99226.91;5031324;28;20056;-80
2022/06/15 01:39:51;;;;;;;4.38;3.97;;;;;;;15.15;74.44;99221.50;5031839;28;20053;-79
2022/06/15 01:42:30;;;;;;;5.63;4.47;;;;;;;15.08;74.26;99206.78;5033156;28;20064;-80
2022/06/15 01:45:04;;;;;;;7.68;4.38;;;;;;;15.24;73.89;99225.66;5031846;28;20053;-79
2022/06/15 01:47:34;;;;;;;9.15;4.10;;;;;;;15.35;73.28;99212.22;5032971;28;20060;-80
2022/06/15 01:50:06;;;;;;;8.60;4.25;;;;;;;15.42;72.75;99199.75;5032539;28;20057;-79
2022/06/15 01:52:45;;;;;;;8.80;4.10;;;;;;;15.64;71.94;99223.72;5032581;28;20060;-79
2022/06/15 01:55:20;;;;;;;6.47;3.87;;;;;;;15.69;71.62;99225.31;5031795;28;20516;-80
2022/06/15 01:57:52;;;;;;;5.82;3.78;;;;;;;16.63;69.40;99219.09;5031481;28;20056;-81
2022/06/15 02:00:21;;;;;;;6.10;3.60;;;;;;;18.86;61.74;99216.44;5015254;28;20077;-81
2022/06/15 02:02:58;;;;;;;5.80;3.47;;;;;;;20.43;57.07;99213.97;5014974;28;20064;-81
2022/06/15 02:05:32;;;;;;;4.40;3.38;;;;;;;22.54;51.13;99218.25;5031262;28;20049;-81
2022/06/15 02:08:26;;;;;;;7.95;3.58;;;;;;;24.37;47.18;99194.03;5032615;28;20060;-82
2022/06/15 02:11:05;;;;;;;3.60;3.30;;;;;;;26.02;42.01;99195.44;5031408;28;20053;-81
2022/06/15 02:13:42;;;;;;;9.73;3.90;;;;;;;27.18;39.61;99203.94;5031352;28;20077;-81
2022/06/15 02:16:19;;;;;;;;;;;;;;;28.18;42.06;99218.56;5031801;28;20076;-82
2022/06/15 02:18:48;;;;;;;3.28;3.00;;;;;;;28.96;35.78;99192.53;5031286;28;20011;-81
2022/06/15 02:21:19;;;;;;;7.10;3.10;;;;;;;30.09;33.38;99213.41;5031421;28;20049;-81
2022/06/15 02:23:51;;;;;;;4.55;3.10;;;;;;;30.76;31.66;99198.47;5032603;28;20061;-81
2022/06/15 02:26:19;;;;;;;4.93;2.75;;;;;;;31.03;31.00;99203.19;5031455;28;20699;-80
2022/06/15 02:28:51;;;;;;;5.95;2.92;;;;;;;31.18;30.14;99203.63;5031399;28;20049;-83
2022/06/15 02:31:18;;;;;;;6.70;2.90;;;;;;;31.87;28.92;99209.78;5032793;28;20053;-82
2022/06/15 02:33:53;;;;;;;3.00;2.70;;;;;;;31.70;28.75;99210.53;5032420;28;20045;-82
2022/06/15 02:36:23;;;;;;;5.22;2.50;;;;;;;31.99;28.13;99191.59;5031210;28;20402;-82
2022/06/15 02:38:51;;;;;;;4.30;2.80;;;;;;;32.41;27.33;99208.13;5031083;28;20063;-84
2022/06/15 02:41:22;;;;;;;2.90;2.60;;;;;;;32.62;27.11;99201.66;5014936;28;20054;-83
2022/06/15 02:43:53;;;;;;;;;;;;;;;33.30;29.70;99212.00;5031555;28;20148;-84
2022/06/15 02:46:21;;;;;;;6.15;2.60;;;;;;;33.25;26.07;99196.19;5033237;28;20273;-83
2022/06/15 02:48:52;;;;;;;4.75;2.58;;;;;;;33.52;25.74;99213.34;5034850;28;20045;-81
2022/06/15 02:51:39;;;;;;;4.63;2.60;;;;;;;34.59;25.10;99209.38;5035364;28;20063;-84
2022/06/15 02:54:35;;;;;;;2.92;2.25;;;;;;;34.78;24.29;99200.09;5035474;28;20049;-84
2022/06/15 02:57:10;;;;;;;5.72;2.53;;;;;;;34.22;23.78;99199.78;5035144;28;20061;-82
2022/06/15 02:59:39;;;;;;;5.28;2.53;;;;;;;34.50;23.61;99218.47;5036253;28;20049;-81
2022/06/15 03:02:07;;;;;;;5.75;2.50;;;;;;;34.28;23.87;99216.38;5034780;28;20046;-80
2022/06/15 03:04:44;;;;;;;2.90;2.40;;;;;;;35.49;22.80;99208.66;5034855;28;20056;-80
2022/06/15 03:07:13;;;;;;;3.13;2.15;;;;;;;35.99;21.72;99212.16;5036114;28;20107;-81
2022/06/15 03:09:41;;;;;;;5.78;2.50;;;;;;;36.57;21.00;99197.34;5036070;28;20050;-82
2022/06/15 03:12:10;;;;;;;;;;;;;;;35.96;23.79;99221.50;5034874;28;20497;-82
2022/06/15 03:14:38;;;;;;;3.77;2.07;;;;;;;36.32;21.34;99218.38;5034719;28;19931;-82
2022/06/15 03:17:11;;;;;;;5.50;2.47;;;;;;;36.89;20.50;99218.09;5035139;28;20061;-82
2022/06/15 03:19:54;;;;;;;5.00;2.50;;;;;;;37.53;19.55;99218.81;5034491;28;20081;-81
2022/06/15 03:22:22;;;;;;;4.95;2.30;;;;;;;37.01;19.86;99218.50;5034803;28;20080;-82
2022/06/15 03:24:54;;;;;;;3.63;2.28;;;;;;;37.02;19.75;99208.47;5034384;28;20050;-81
2022/06/15 03:27:21;;;;;;;5.40;2.40;;;;;;;35.60;21.33;99208.34;5035646;28;20050;-81
2022/06/15 03:29:50;;;;;;;4.50;2.25;;;;;;;33.24;23.36;99191.81;5035256;28;20437;-80
2022/06/15 03:32:22;;;;;;;3.95;2.35;;;;;;;32.29;24.81;99217.47;5034726;28;20592;-81
2022/06/15 03:34:59;;;;;;;3.83;2.10;;;;;;;32.67;24.26;99203.91;5034169;28;20057;-81
2022/06/15 03:37:29;;;;;;;2.92;2.10;;;;;;;34.02;22.64;99206.41;5034434;28;20061;-81
2022/06/15 03:40:11;;;;;;;3.28;2.33;;;;;;;34.71;22.01;99211.81;5034634;28;20060;-81
2022/06/15 03:42:43;;;;;;;7.20;2.22;;;;;;;35.39;21.43;99208.84;5034333;28;20046;-83
2022/06/15 03:45:13;;;;;;;3.78;2.65;;;;;;;36.97;19.82;99210.91;5017408;28;20103;-81
2022/06/15 03:47:41;;;;;;;4.55;2.05;;;;;;;37.50;19.03;99201.81;5033614;28;20436;-81
2022/06/15 03:50:11;;;;;;;4.43;2.38;;;;;;;37.79;18.81;99212.97;5033647;28;20069;-81
2022/06/15 03:52:38;;;;;;;4.47;2.30;;;;;;;37.93;18.48;99208.56;5033916;28;20099;-80
2022/06/15 03:55:05;;;;;;;3.63;2.13;;;;;;;38.25;17.92;99201.91;5034748;28;20140;-80
2022/06/15 03:57:33;;;;;;;3.15;2.20;;;;;;;37.23;18.78;99214.13;5033290;28;20054;-80
2022/06/15 04:00:05;;;;;;;7.55;2.30;;;;;;;36.61;19.53;99212.31;5033604;28;20053;-79
2022/06/15 04:02:53;;;;;;;3.70;2.33;;;;;;;36.79;19.11;99203.88;5031666;28;20409;-81
2022/06/15 04:05:54;;;;;;;3.63;2.40;;;;;;;36.73;19.37;99212.75;5031798;28;20053;-80
2022/06/15 04:08:42;;;;;;;3.13;1.90;;;;;;;37.56;18.69;99204.81;5033248;28;20417;-81
2022/06/15 04:14:30;;;;;;;2.00;1.80;;;;;;;36.84;18.64;99189.72;5014740;28;20062;-82
2022/06/15 04:17:06;;;;;;;2.75;1.85;;;;;;;35.71;19.79;99204.44;5013884;28;20536;-83
2022/06/15 04:22:42;;;;;;;7.93;2.10;;;;;;;29.43;27.49;99216.44;5024290;28;20073;-83
2022/06/15 04:25:09;;;;;;;5.32;1.95;;;;;;;27.02;31.13;99201.56;5037474;28;20289;-82
2022/06/15 04:27:37;;;;;;;3.47;2.00;;;;;;;25.75;33.48;99220.47;5038654;28;20037;-81
2022/06/15 04:30:06;;;;;;;;;;;;;;;24.15;34.95;99221.22;5027896;28;20063;-81
2022/06/15 04:32:33;;;;;;;7.90;2.20;;;;;;;24.60;36.33;99213.94;5018864;28;19925;-85
2022/06/15 04:35:05;;;;;;;3.55;1.80;;;;;;;24.68;36.22;99211.63;5024042;28;20053;-85
2022/06/15 04:37:37;;;;;;;3.30;1.88;;;;;;;24.16;36.30;99231.81;5014088;28;20461;-86
2022/06/15 04:40:14;;;;;;;5.30;2.00;;;;;;;23.69;37.27;99231.06;4999035;28;20141;-87
2022/06/15 04:42:42;;;;;;;4.65;2.45;;;;;;;23.27;38.11;99218.50;4998514;28;20045;-86
2022/06/15 04:45:11;;;;;;;3.15;1.80;;;;;;;22.70;38.96;99217.31;5013434;28;20434;-83
2022/06/15 04:47:51;;;;;;;2.80;1.70;;;;;;;22.38;39.65;99231.56;5031632;28;20054;-84
2022/06/15 04:50:21;;;;;;;4.40;1.90;;;;;;;22.16;39.48;99231.84;5014898;28;20046;-84
2022/06/15 04:52:50;;;;;;;4.50;1.63;;;;;;;21.96;39.75;99238.22;4997615;28;20052;-84
2022/06/15 04:55:21;;;;;;;3.03;1.65;;;;;;;21.70;40.08;99213.88;5013893;28;20061;-85
2022/06/15 04:57:54;;;;;;;4.75;1.85;;;;;;;21.50;40.66;99230.03;5019254;28;20472;-84
2022/06/15 05:00:24;;;;;;;4.88;1.80;;;;;;;20.96;42.18;99233.56;5015567;28;20054;-86
2022/06/15 05:02:53;;;;;;;4.45;1.75;;;;;;;21.13;42.09;99223.91;5016127;28;20045;-87
2022/06/15 05:05:26;;;;;;;3.13;1.50;;;;;;;21.08;41.53;99181.66;5016604;28;20057;-88
2022/06/15 05:07:53;;;;;;;2.88;1.60;;;;;;;20.87;42.28;99199.50;5033329;28;20460;-91
2022/06/15 05:10:24;;;;;;;3.05;1.80;;;;;;;20.97;42.53;99215.81;5015347;28;20057;-85
2022/06/15 05:12:52;;;;;;;2.78;1.88;;;;;;;20.98;42.14;99217.56;5034126;28;20064;-86
2022/06/15 05:15:23;;;;;;;4.32;1.60;;;;;;;20.86;42.24;99203.97;5017213;28;20057;-85
2022/06/15 05:18:02;;;;;;;2.80;1.55;;;;;;;20.83;42.34;99200.59;5018117;28;20053;-85
2022/06/15 05:20:29;;;;;;;4.38;1.88;;;;;;;21.18;42.04;99214.75;5034060;28;20065;-85
2022/06/15 05:22:56;;;;;;;5.70;1.70;;;;;;;21.18;41.62;99201.47;5036191;28;20119;-84
2022/06/15 05:25:44;;;;;;;4.45;1.50;;;;;;;21.14;42.01;99226.44;5031771;28;20425;-83
2022/06/15 05:28:12;;;;;;;3.88;1.98;;;;;;;20.86;42.64;99225.19;5032492;28;20049;-85
2022/06/15 05:30:41;;;;;;;1.83;1.73;;;;;;;20.83;43.02;99237.75;5032834;28;20163;-86
2022/06/15 05:33:11;;;;;;;;;;;;;;;20.62;42.47;99229.03;5034196;28;20448;-93
2022/06/15 05:35:39;;;;;;;2.53;1.35;;;;;;;20.76;42.05;99231.88;5019022;28;19925;-84
2022/06/15 05:38:06;;;;;;;1.42;1.33;;;;;;;21.03;41.93;99234.09;5018692;28;20132;-85
2022/06/15 05:40:35;;;;;;;3.53;1.30;;;;;;;21.32;41.84;99229.16;5033403;28;20053;-83
2022/06/15 05:43:03;;;;;;;3.17;1.58;;;;;;;21.14;42.00;99228.25;5033204;28;20053;-83
2022/06/15 05:45:34;;;;;;;7.07;1.60;;;;;;;21.05;41.51;99198.56;5016769;28;20050;-85
2022/06/15 05:48:01;;;;;;;5.00;1.30;;;;;;;21.15;41.95;99222.03;5015062;28;20056;-84
2022/06/15 05:50:36;;;;;;;3.25;1.27;;;;;;;20.90;42.00;99233.84;5032751;28;20505;-83
2022/06/15 05:53:15;;;;;;;3.53;1.48;;;;;;;21.22;42.06;99234.91;5032251;28;20053;-82
2022/06/15 05:55:42;;;;;;;4.55;1.30;;;;;;;21.84;42.14;99208.72;5033989;28;20524;-85
2022/06/15 05:58:09;;;;;;;2.03;1.30;;;;;;;22.10;40.04;99235.69;5033015;28;20053;-83
2022/06/15 06:00:38;;;;;;;1.77;1.23;;;;;;;21.75;40.54;99217.19;5015757;28;20517;-83
2022/06/15 06:03:05;;;;;;;1.87;1.40;;;;;;;21.56;40.51;99219.09;5032817;28;20072;-82
2022/06/15 06:05:33;;;;;;;4.80;1.50;;;;;;;21.79;39.75;99237.34;5034084;28;20045;-84
2022/06/15 06:08:00;;;;;;;3.63;1.40;;;;;;;21.65;40.00;99234.53;5033980;28;20065;-82
2022/06/15 06:10:27;;;;;;;3.05;1.38;;;;;;;21.86;39.60;99229.91;5032544;28;20136;-82
2022/06/15 06:12:54;;;;;;;3.42;1.40;;;;;;;21.31;40.25;99217.63;5032928;28;20533;-82
2022/06/15 06:15:21;;;;;;;4.18;1.10;;;;;;;21.06;40.77;99240.13;5032354;28;20418;-84
2022/06/15 06:17:50;;;;;;;1.38;1.10;;;;;;;20.99;40.98;99221.91;5032739;28;20528;-84
2022/06/15 06:20:17;;;;;;;2.83;1.40;;;;;;;21.01;41.09;99231.50;5031802;28;20061;-85
2022/06/15 06:22:44;;;;;;;2.00;1.30;;;;;;;21.28;40.38;99239.06;5036560;28;20045;-84
2022/06/15 06:25:11;;;;;;;2.47;1.30;;;;;;;21.22;40.53;99245.53;5019896;28;20509;-82
2022/06/15 06:27:39;;;;;;;2.60;1.05;;;;;;;21.34;40.63;99243.19;5037366;28;20045;-82
2022/06/15 06:30:06;;;;;;;4.07;1.08;;;;;;;21.16;41.51;99245.81;5036845;28;20149;-82
2022/06/15 06:32:35;;;;;;;2.80;1.30;;;;;;;21.22;40.60;99216.31;5035814;28;20524;-86
2022/06/15 06:35:02;;;;;;;4.60;1.13;;;;;;;21.47;40.43;99236.34;5035448;28;20190;-87
2022/06/15 06:37:35;;;;;;;5.65;1.60;;;;;;;21.73;40.26;99229.69;5036411;28;20076;-85
2022/06/15 06:40:04;;;;;;;2.45;2.17;;;;;;;21.99;39.40;99243.41;5035143;28;20417;-81
2022/06/15 06:42:31;;;;;;;4.90;1.52;;;;;;;21.85;39.21;99193.59;5036530;28;20140;-82
2022/06/15 06:44:59;;;;;;;2.55;1.13;;;;;;;22.09;39.14;99242.81;5019237;28;20068;-82
2022/06/15 06:47:26;;;;;;;1.23;1.10;;;;;;;22.11;39.05;99258.69;5035006;28;20059;-82
2022/06/15 06:49:54;;;;;;;2.63;1.13;;;;;;;22.31;38.88;99241.69;5035278;28;20046;-84
2022/06/15 06:52:21;;;;;;;2.30;1.55;;;;;;;22.15;38.99;99219.50;5036830;28;20049;-85
2022/06/15 06:54:48;;;;;;;3.60;1.75;;;;;;;22.39;39.32;99238.59;5018451;28;20056;-84
2022/06/15 06:57:15;;;;;;;6.75;1.85;;;;;;;22.88;38.58;99246.50;5035977;28;20057;-84
2022/06/15 06:59:43;;;;;;;6.25;1.60;;;;;;;22.55;37.87;99243.94;5002254;28;20107;-82
2022/06/15 07:02:10;;;;;;;6.65;1.50;;;;;;;22.11;38.77;99234.75;5035994;28;20057;-84
2022/06/15 07:04:37;;;;;;;6.93;1.52;;;;;;;21.75;39.47;99240.25;5035029;28;20067;-83
2022/06/15 07:07:04;;;;;;;3.95;1.83;;;;;;;21.25;40.44;99244.50;5034619;28;20049;-82
2022/06/15 07:09:32;;;;;;;6.00;1.65;;;;;;;21.25;40.93;99249.81;5018852;28;20053;-83
2022/06/15 07:11:59;;;;;;;4.88;1.70;;;;;;;21.14;41.08;99249.50;5035799;28;20065;-83
2022/06/15 07:14:26;;;;;;;3.35;1.40;;;;;;;21.35;40.14;99259.06;5034732;28;20053;-84
2022/06/15 07:16:53;;;;;;;3.78;1.30;;;;;;;21.13;40.47;99256.63;5036109;28;20053;-83
2022/06/15 07:19:20;;;;;;;3.70;1.30;;;;;;;21.18;40.77;99232.47;5035780;28;20053;-84
2022/06/15 07:21:47;;;;;;;4.03;1.80;;;;;;;21.26;41.12;99259.53;5036139;28;20140;-85
2022/06/15 07:24:14;;;;;;;6.80;2.05;;;;;;;21.18;41.05;99249.28;5018224;28;20053;-83
2022/06/15 07:26:47;;;;;;;2.58;1.55;;;;;;;21.66;40.25;99253.06;5018770;28;20061;-86
2022/06/15 07:29:19;;;;;;;6.95;1.73;;;;;;;22.00;40.00;99258.41;5035818;28;20064;-84
2022/06/15 07:31:50;;;;;;;6.07;1.67;;;;;;;22.13;40.05;99255.94;5041131;28;20556;-84
2022/06/15 07:34:17;;;;;;;6.57;2.00;;;;;;;21.89;39.32;99235.91;5033633;28;20485;-83
2022/06/15 07:36:46;;;;;;;5.05;2.40;;;;;;;21.83;40.17;99262.81;5035542;28;20060;-83
2022/06/15 07:39:17;;;;;;;2.85;1.65;;;;;;;21.79;40.49;99261.28;5017797;28;20057;-83
2022/06/15 07:41:46;;;;;;;6.28;1.40;;;;;;;21.79;40.92;99268.34;5036059;28;20091;-83
2022/06/15 07:44:14;;;;;;;5.78;1.40;;;;;;;21.78;40.80;99269.31;5035205;28;20057;-84
2022/06/15 07:46:43;;;;;;;4.00;1.13;;;;;;;21.36;40.58;99251.94;5035293;28;20076;-84
2022/06/15 07:52:01;;;;;;;2.95;1.35;;;;;;;21.53;40.74;99273.25;5034427;28;20133;-84
2022/06/15 07:54:29;;;;;;;2.85;1.30;;;;;;;21.94;39.98;99274.66;5036284;28;20527;-83
2022/06/15 07:56:57;;;;;;;6.90;2.03;;;;;;;22.29;39.68;99262.19;5018414;28;20080;-83
2022/06/15 07:59:24;;;;;;;2.60;1.50;;;;;;;22.88;39.03;99279.28;5017704;28;20162;-84
2022/06/15 08:01:52;;;;;;;5.13;1.08;;;;;;;22.73;37.93;99256.19;5034146;28;20056;-84
2022/06/15 08:04:19;;;;;;;1.95;1.20;;;;;;;22.78;37.44;99266.59;5035204;28;20468;-84
2022/06/15 08:06:48;;;;;;;3.97;1.63;;;;;;;22.71;38.54;99279.38;5034029;28;20429;-84
2022/06/15 08:09:16;;;;;;;4.25;1.88;;;;;;;22.74;38.39;99276.56;5034456;28;20104;-84
2022/06/15 08:14:34;;;;;;;5.47;1.67;;;;;;;22.06;38.72;99269.56;5041421;28;20048;-84
2022/06/15 08:17:03;;;;;;;7.72;2.53;;;;;;;21.61;39.54;99271.03;5058721;28;20095;-85
2022/06/15 08:19:34;;;;;;;4.45;2.08;;;;;;;21.57;39.36;99287.22;5059131;28;20029;-85
2022/06/15 08:22:02;;;;;;;4.53;1.80;;;;;;;21.39;39.07;99265.94;5057633;28;20057;-85
2022/06/15 08:24:31;;;;;;;2.83;1.20;;;;;;;21.48;38.77;99300.03;5052619;28;20464;-85
2022/06/15 08:26:58;;;;;;;3.40;1.58;;;;;;;21.27;39.14;99266.53;5041831;28;20445;-84
2022/06/15 08:29:26;;;;;;;4.03;1.80;;;;;;;21.79;38.83;99298.47;5033583;28;20049;-84
2022/06/15 08:31:57;;;;;;;6.70;1.73;;;;;;;21.96;38.32;99299.38;5033007;28;20099;-85
2022/06/15 08:34:28;;;;;;;4.90;1.70;;;;;;;22.35;38.05;99311.53;5034202;28;20527;-86
2022/06/15 08:36:56;;;;;;;3.78;1.40;;;;;;;22.41;37.97;99316.53;5033640;28;20056;-85
2022/06/15 08:39:23;;;;;;;6.10;1.65;;;;;;;22.56;38.05;99317.50;5034240;28;20049;-85
2022/06/15 08:42:01;;;;;;;4.50;1.50;;;;;;;22.56;37.64;99302.38;5016526;28;20088;-84
2022/06/15 08:45:05;;;;;;;2.67;1.30;;;;;;;22.27;37.88;99309.31;5034450;28;20057;-85
2022/06/15 08:47:44;;;;;;;10.02;1.58;;;;;;;21.85;37.93;99303.47;5032332;28;20053;-86
2022/06/15 08:50:33;;;;;;;2.50;0.98;;;;;;;21.52;38.83;99308.72;5032743;28;20057;-86
2022/06/15 08:53:27;;;;;;;6.15;1.40;;;;;;;21.52;38.71;99311.38;5033530;28;20053;-88
2022/06/15 08:56:07;;;;;;;1.88;1.10;;;;;;;21.53;39.33;99307.78;5044999;28;20037;-86
2022/06/15 08:58:45;;;;;;;2.40;1.30;;;;;;;21.53;38.95;99297.16;5014734;28;20052;-86
2022/06/15 09:01:30;;;;;;;3.90;1.38;;;;;;;21.55;40.09;99319.16;5018743;28;20056;-85
2022/06/15 09:04:13;;;;;;;3.30;1.20;;;;;;;22.02;38.82;99315.88;5001799;28;20081;-83
2022/06/15 09:06:49;;;;;;;1.05;0.80;;;;;;;22.58;37.36;99310.28;5027357;28;20049;-82
2022/06/15 09:09:46;;;;;;;2.47;1.10;;;;;;;22.46;37.33;99323.34;5023346;28;20077;-84
2022/06/15 09:15:15;;;;;;;4.50;1.20;;;;;;;23.00;36.71;99320.41;5036758;28;20053;-84
2022/06/15 09:17:46;;;;;;;1.73;1.10;;;;;;;22.63;37.30;99322.41;5039478;28;20052;-84
2022/06/15 09:20:21;;;;;;;2.90;1.20;;;;;;;22.49;37.20;99331.13;4997010;28;20103;-83
2022/06/15 09:22:59;;;;;;;5.82;1.70;;;;;;;22.35;38.47;99325.72;5026855;28;20050;-87
2022/06/15 09:25:32;;;;;;;1.63;0.80;;;;;;;22.37;37.04;99320.28;5035307;28;20136;-83
2022/06/15 09:28:11;;;;;;;1.50;0.90;;;;;;;22.19;37.24;99325.63;5013926;28;20050;-82
2022/06/15 09:30:41;;;;;;;2.72;1.30;;;;;;;22.53;36.81;99347.81;5015092;28;20073;-82
2022/06/15 09:33:12;;;;;;;;;;;;;;;22.39;37.54;99337.91;5015755;28;20061;-80
2022/06/15 09:35:51;;;;;;;3.78;1.40;;;;;;;22.55;37.06;99343.25;5033277;28;19925;-80
2022/06/15 09:38:18;;;;;;;3.13;0.90;;;;;;;22.58;37.34;99334.25;5031653;28;20087;-81
2022/06/15 09:40:55;;;;;;;1.23;0.93;;;;;;;22.40;37.65;99342.28;5033830;28;20046;-79
2022/06/15 09:43:41;;;;;;;1.75;0.90;;;;;;;22.43;37.70;99342.09;5048591;28;20053;-81
2022/06/15 09:46:29;;;;;;;5.03;1.20;;;;;;;22.55;37.45;99348.59;5034487;28;20053;-81
2022/06/15 09:49:21;;;;;;;3.33;1.58;;;;;;;22.60;36.87;99351.84;5033771;28;20072;-81
2022/06/15 09:51:54;;;;;;;5.88;1.00;;;;;;;22.47;37.36;99358.78;5033125;28;20056;-81
2022/06/15 09:54:41;;;;;;;5.35;2.33;;;;;;;22.44;37.42;99358.97;5035602;28;20092;-82
2022/06/15 09:57:11;;;;;;;1.92;1.48;;;;;;;22.33;37.45;99362.19;5033594;28;20076;-78
2022/06/15 09:59:39;;;;;;;3.17;1.17;;;;;;;22.36;36.96;99331.91;5034123;28;20049;-83
2022/06/15 10:02:21;;;;;;;3.40;1.20;;;;;;;22.51;36.81;99351.50;5034021;28;20049;-83
2022/06/15 10:04:49;;;;;;;4.55;2.50;;;;;;;22.44;37.54;99353.63;5035204;28;20053;-83
2022/06/15 10:07:41;;;;;;;4.30;1.65;;;;;;;22.24;38.00;99342.25;5033909;28;20080;-83
2022/06/15 10:10:24;;;;;;;3.13;1.15;;;;;;;22.42;37.32;99350.19;5032191;28;20057;-80
2022/06/15 10:12:58;;;;;;;1.60;1.25;;;;;;;22.43;36.92;99350.09;5033733;28;20107;-79
2022/06/15 10:15:32;;;;;;;3.42;0.95;;;;;;;22.60;37.19;99343.84;5033913;28;20061;-81
2022/06/15 10:18:20;;;;;;;2.85;1.10;;;;;;;22.70;36.57;99344.22;5032087;28;20052;-84
2022/06/15 10:21:03;;;;;;;3.83;1.00;;;;;;;22.64;36.74;99350.75;5033304;28;20457;-83
2022/06/15 10:24:02;;;;;;;5.47;1.35;;;;;;;22.69;36.65;99359.34;5032231;28;20056;-82
2022/06/15 10:26:35;;;;;;;3.88;1.17;;;;;;;22.37;37.04;99347.78;5033348;28;20139;-83
2022/06/15 10:29:27;;;;;;;3.08;1.20;;;;;;;22.40;37.51;99352.94;5034494;28;20081;-86
2022/06/15 10:32:10;;;;;;;3.17;1.30;;;;;;;22.48;37.17;99363.19;5035420;28;20073;-81
2022/06/15 10:34:45;;;;;;;1.85;0.93;;;;;;;22.46;37.28;99354.41;5016551;28;20149;-83
2022/06/15 10:37:25;;;;;;;2.67;1.00;;;;;;;22.73;36.98;99354.69;5035420;28;20528;-81
2022/06/15 10:39:58;;;;;;;2.97;1.10;;;;;;;22.95;35.70;99357.06;5016586;28;20049;-84
2022/06/15 10:42:36;;;;;;;4.68;1.20;;;;;;;23.39;35.23;99364.34;5034334;28;20073;-83
2022/06/15 10:45:26;;;;;;;3.88;1.10;;;;;;;23.51;34.69;99357.44;5036171;28;20064;-84
2022/06/15 10:48:15;;;;;;;3.83;1.08;;;;;;;23.43;34.36;99352.56;5037019;28;20050;-83
2022/06/15 10:50:48;;;;;;;2.15;1.13;;;;;;;23.31;34.93;99358.59;5036194;28;20056;-83
2022/06/15 10:53:46;;;;;;;4.32;1.35;;;;;;;22.95;35.92;99357.06;5037161;28;20076;-82
2022/06/15 11:02:21;;;;;;;2.85;1.10;;;;;;;23.87;34.48;99343.78;5039473;28;20121;-81
2022/06/15 11:04:48;;;;;;;3.97;1.20;;;;;;;23.61;35.06;99363.97;5035703;28;20156;-84
2022/06/15 11:07:39;;;;;;;2.75;1.25;;;;;;;23.10;35.79;99358.00;5034526;28;20493;-85
2022/06/15 11:10:25;;;;;;;2.25;1.10;;;;;;;22.95;36.28;99365.03;5036029;28;20080;-83
2022/06/15 11:12:57;;;;;;;2.42;1.10;;;;;;;22.95;36.60;99357.06;5035452;28;20119;-80
2022/06/15 11:18:44;;;;;;;4.53;1.20;;;;;;;23.14;36.26;99364.03;5036044;28;20057;-82
2022/06/15 11:21:13;;;;;;;2.13;1.00;;;;;;;23.13;36.47;99379.16;5034860;28;20068;-84
2022/06/15 11:23:53;;;;;;;2.30;1.30;;;;;;;23.14;36.30;99380.03;5036051;28;20057;-82
2022/06/15 11:29:30;;;;;;;4.80;1.58;;;;;;;23.50;35.86;99361.94;5035688;28;20077;-81
2022/06/15 11:32:14;;;;;;;1.58;1.48;;;;;;;23.66;35.73;99372.56;5036160;28;20468;-82
2022/06/15 11:34:53;;;;;;;2.45;1.35;;;;;;;23.79;35.85;99375.41;5036026;28;20053;-80
2022/06/15 11:37:38;;;;;;;2.30;1.15;;;;;;;24.00;35.46;99357.25;5038040;28;20107;-82
2022/06/15 11:40:24;;;;;;;3.65;1.30;;;;;;;23.66;35.43;99356.59;5036771;28;20476;-80
2022/06/15 11:42:53;;;;;;;2.45;1.13;;;;;;;23.77;35.41;99361.31;5036346;28;20081;-82
2022/06/15 11:45:48;;;;;;;4.78;1.40;;;;;;;23.60;36.00;99385.41;5035680;28;20511;-81
2022/06/15 11:48:39;;;;;;;4.85;1.48;;;;;;;23.46;36.36;99363.03;5035559;28;20049;-82
2022/06/15 11:51:15;;;;;;;1.70;1.00;;;;;;;23.33;36.30;99390.50;5037204;28;20564;-82
2022/06/15 11:53:57;;;;;;;2.95;1.02;;;;;;;23.10;36.25;99393.53;5037707;28;20104;-83
2022/06/15 11:56:29;;;;;;;2.88;1.33;;;;;;;23.09;36.35;99391.78;5035537;28;20052;-82
2022/06/15 11:59:43;;;;;;;1.50;1.40;;;;;;;23.32;36.18;99394.97;5035827;28;20045;-82
2022/06/15 12:02:30;;;;;;;2.55;1.35;;;;;;;23.62;35.24;99383.50;5036128;28;20053;-82
2022/06/15 12:05:07;;;;;;;1.45;1.35;;;;;;;23.78;34.91;99379.00;5051011;28;20093;-81
2022/06/15 12:07:39;;;;;;;2.47;1.10;;;;;;;24.14;34.62;99383.13;5058920;28;20065;-81
2022/06/15 12:10:33;;;;;;;3.47;1.70;;;;;;;23.90;35.29;99374.78;5059189;28;20045;-79
2022/06/15 12:13:06;;;;;;;4.50;1.30;;;;;;;23.58;35.25;99382.81;5048977;28;20061;-81
2022/06/15 12:15:45;;;;;;;6.70;1.42;;;;;;;23.24;36.17;99376.75;5043347;28;20533;-81
2022/06/15 12:18:18;;;;;;;3.28;1.30;;;;;;;22.84;36.93;99375.41;5035857;28;20494;-81
2022/06/15 12:21:02;;;;;;;6.07;1.95;;;;;;;22.72;37.09;99362.78;5034477;28;20128;-83
2022/06/15 12:23:59;;;;;;;5.78;1.50;;;;;;;22.59;37.14;99370.59;5034944;28;20049;-83
2022/06/15 12:26:50;;;;;;;4.47;1.80;;;;;;;22.59;37.34;99360.78;5033988;28;20053;-84
2022/06/15 12:29:38;;;;;;;1.73;1.35;;;;;;;22.85;36.58;99377.16;5035192;28;20056;-80
2022/06/15 12:32:34;;;;;;;1.55;1.02;;;;;;;23.10;36.24;99379.31;5034736;28;20136;-84
2022/06/15 12:35:21;;;;;;;4.15;1.35;;;;;;;23.24;36.14;99370.56;5034053;28;20140;-82
2022/06/15 12:37:53;;;;;;;2.80;1.50;;;;;;;23.04;36.23;99383.19;5030823;28;20053;-84